sensor_id;sensor_type;location;lat;lon;timestamp;pressure;altitude;pressure_sealevel;temperature;humidity
51239;BME280;38154;47.548;18.828;2022-08-19T00:00:35;98250.09;;;26.99;46.85
51239;BME280;38154;47.548;18.828;2022-08-19T00:03:02;98246.78;;;26.96;46.99
51239;BME280;38154;47.548;18.828;2022-08-19T00:05:28;98259.22;;;26.97;46.96
51239;BME280;38154;47.548;18.828;2022-08-19T00:07:53;98253.69;;;26.87;47.11
51239;BME280;38154;47.548;18.828;2022-08-19T00:10:20;98249.06;;;26.89;47.08
51239;BME280;38154;47.548;18.828;2022-08-19T00:12:46;98242.03;;;26.88;47.06
51239;BME280;38154;47.548;18.828;2022-08-19T00:15:12;98247.37;;;26.88;47.06
51239;BME280;38154;47.548;18.828;2022-08-19T00:17:40;98243.72;;;26.89;47.04
51239;BME280;38154;47.548;18.828;2022-08-19T00:20:08;98255.34;;;26.77;47.35
51239;BME280;38154;47.548;18.828;2022-08-19T00:22:37;98252.78;;;26.75;47.43
51239;BME280;38154;47.548;18.828;2022-08-19T00:25:05;98242.63;;;26.68;47.72
51239;BME280;38154;47.548;18.828;2022-08-19T00:27:31;98244.00;;;26.60;47.74
51239;BME280;38154;47.548;18.828;2022-08-19T00:29:57;98253.88;;;26.60;47.75
51239;BME280;38154;47.548;18.828;2022-08-19T00:32:25;98251.09;;;26.61;47.76
51239;BME280;38154;47.548;18.828;2022-08-19T00:34:52;98247.75;;;26.58;47.76
51239;BME280;38154;47.548;18.828;2022-08-19T00:37:20;98238.25;;;26.67;47.53
51239;BME280;38154;47.548;18.828;2022-08-19T00:39:49;98249.19;;;26.63;47.46
51239;BME280;38154;47.548;18.828;2022-08-19T00:42:17;98246.50;;;26.63;47.49
51239;BME280;38154;47.548;18.828;2022-08-19T00:44:42;98237.62;;;26.63;47.51
51239;BME280;38154;47.548;18.828;2022-08-19T00:47:08;98245.66;;;26.63;47.44
51239;BME280;38154;47.548;18.828;2022-08-19T00:49:41;98248.41;;;26.61;47.53
51239;BME280;38154;47.548;18.828;2022-08-19T00:52:17;98238.88;;;26.57;47.57
51239;BME280;38154;47.548;18.828;2022-08-19T00:54:44;98243.72;;;26.52;47.77
51239;BME280;38154;47.548;18.828;2022-08-19T00:57:16;98245.88;;;26.47;47.85
51239;BME280;38154;47.548;18.828;2022-08-19T00:59:45;98254.13;;;26.44;47.92
51239;BME280;38154;47.548;18.828;2022-08-19T01:02:11;98254.94;;;26.57;47.54
51239;BME280;38154;47.548;18.828;2022-08-19T01:04:37;98241.16;;;26.51;47.73
51239;BME280;38154;47.548;18.828;2022-08-19T01:07:03;98236.38;;;26.43;47.95
51239;BME280;38154;47.548;18.828;2022-08-19T01:09:30;98237.44;;;26.40;48.04
51239;BME280;38154;47.548;18.828;2022-08-19T01:11:56;98228.56;;;26.40;48.08
51239;BME280;38154;47.548;18.828;2022-08-19T01:14:22;98241.53;;;26.33;48.23
51239;BME280;38154;47.548;18.828;2022-08-19T01:16:49;98230.66;;;26.23;48.47
51239;BME280;38154;47.548;18.828;2022-08-19T01:19:20;98227.97;;;26.23;48.51
51239;BME280;38154;47.548;18.828;2022-08-19T01:22:03;98239.19;;;26.16;48.77
51239;BME280;38154;47.548;18.828;2022-08-19T01:24:31;98232.16;;;26.15;48.76
51239;BME280;38154;47.548;18.828;2022-08-19T01:26:58;98229.12;;;26.19;48.55
51239;BME280;38154;47.548;18.828;2022-08-19T01:29:24;98218.69;;;26.16;48.54
51239;BME280;38154;47.548;18.828;2022-08-19T01:31:50;98218.22;;;26.22;48.28
51239;BME280;38154;47.548;18.828;2022-08-19T01:34:19;98212.25;;;26.32;47.94
51239;BME280;38154;47.548;18.828;2022-08-19T01:36:46;98216.19;;;26.26;48.08
51239;BME280;38154;47.548;18.828;2022-08-19T01:39:16;98203.91;;;26.23;48.05
51239;BME280;38154;47.548;18.828;2022-08-19T01:41:42;98187.25;;;26.20;48.08
51239;BME280;38154;47.548;18.828;2022-08-19T01:44:09;98195.78;;;26.25;47.91
51239;BME280;38154;47.548;18.828;2022-08-19T01:46:36;98189.06;;;26.19;47.96
51239;BME280;38154;47.548;18.828;2022-08-19T01:49:04;98189.41;;;26.15;48.03
51239;BME280;38154;47.548;18.828;2022-08-19T01:51:30;98190.78;;;26.20;47.79
51239;BME280;38154;47.548;18.828;2022-08-19T01:53:56;98182.75;;;26.20;47.86
51239;BME280;38154;47.548;18.828;2022-08-19T01:56:22;98169.63;;;26.17;47.89
51239;BME280;38154;47.548;18.828;2022-08-19T01:58:52;98154.78;;;26.13;47.92
51239;BME280;38154;47.548;18.828;2022-08-19T02:01:19;98164.59;;;26.13;47.97
51239;BME280;38154;47.548;18.828;2022-08-19T02:03:45;98157.88;;;26.07;48.00
51239;BME280;38154;47.548;18.828;2022-08-19T02:06:11;98159.50;;;26.09;48.00
51239;BME280;38154;47.548;18.828;2022-08-19T02:08:38;98175.12;;;26.03;48.12
51239;BME280;38154;47.548;18.828;2022-08-19T02:11:05;98180.00;;;26.09;48.04
51239;BME280;38154;47.548;18.828;2022-08-19T02:13:31;98176.16;;;26.13;47.95
51239;BME280;38154;47.548;18.828;2022-08-19T02:15:57;98180.75;;;26.11;48.06
51239;BME280;38154;47.548;18.828;2022-08-19T02:18:23;98173.41;;;26.02;48.34
51239;BME280;38154;47.548;18.828;2022-08-19T02:20:49;98169.78;;;26.03;48.29
51239;BME280;38154;47.548;18.828;2022-08-19T02:23:16;98170.50;;;26.05;48.23
51239;BME280;38154;47.548;18.828;2022-08-19T02:25:47;98154.03;;;26.11;48.13
51239;BME280;38154;47.548;18.828;2022-08-19T02:28:14;98153.06;;;26.12;48.00
51239;BME280;38154;47.548;18.828;2022-08-19T02:30:41;98153.78;;;26.14;47.96
51239;BME280;38154;47.548;18.828;2022-08-19T02:33:07;98160.97;;;26.14;48.07
51239;BME280;38154;47.548;18.828;2022-08-19T02:35:33;98162.56;;;26.16;47.81
51239;BME280;38154;47.548;18.828;2022-08-19T02:37:59;98162.28;;;26.08;47.94
51239;BME280;38154;47.548;18.828;2022-08-19T02:40:51;98155.63;;;26.14;47.75
51239;BME280;38154;47.548;18.828;2022-08-19T02:43:18;98156.03;;;26.20;47.44
51239;BME280;38154;47.548;18.828;2022-08-19T02:45:47;98162.31;;;26.19;47.42
51239;BME280;38154;47.548;18.828;2022-08-19T02:48:20;98176.03;;;26.15;47.47
51239;BME280;38154;47.548;18.828;2022-08-19T02:50:48;98177.94;;;26.13;47.55
51239;BME280;38154;47.548;18.828;2022-08-19T02:53:17;98176.91;;;26.15;47.44
51239;BME280;38154;47.548;18.828;2022-08-19T02:55:45;98182.75;;;26.20;47.33
51239;BME280;38154;47.548;18.828;2022-08-19T02:58:11;98196.66;;;26.13;47.55
51239;BME280;38154;47.548;18.828;2022-08-19T03:00:41;98190.47;;;26.12;47.52
51239;BME280;38154;47.548;18.828;2022-08-19T03:03:07;98187.06;;;26.10;47.59
51239;BME280;38154;47.548;18.828;2022-08-19T03:05:33;98175.84;;;26.05;47.86
51239;BME280;38154;47.548;18.828;2022-08-19T03:07:59;98176.69;;;26.05;47.91
51239;BME280;38154;47.548;18.828;2022-08-19T03:10:25;98183.25;;;26.01;48.08
51239;BME280;38154;47.548;18.828;2022-08-19T03:12:51;98190.16;;;26.04;47.91
51239;BME280;38154;47.548;18.828;2022-08-19T03:15:17;98196.50;;;26.03;48.07
51239;BME280;38154;47.548;18.828;2022-08-19T03:17:43;98200.00;;;26.03;48.14
51239;BME280;38154;47.548;18.828;2022-08-19T03:20:09;98209.84;;;26.03;48.17
51239;BME280;38154;47.548;18.828;2022-08-19T03:22:35;98215.81;;;26.06;47.97
51239;BME280;38154;47.548;18.828;2022-08-19T03:25:01;98209.37;;;26.09;47.80
51239;BME280;38154;47.548;18.828;2022-08-19T03:27:28;98213.88;;;26.08;47.80
51239;BME280;38154;47.548;18.828;2022-08-19T03:29:55;98211.44;;;26.05;47.98
51239;BME280;38154;47.548;18.828;2022-08-19T03:32:20;98221.06;;;26.08;47.97
51239;BME280;38154;47.548;18.828;2022-08-19T03:34:47;98218.59;;;26.05;47.93
51239;BME280;38154;47.548;18.828;2022-08-19T03:37:13;98215.94;;;26.05;47.93
51239;BME280;38154;47.548;18.828;2022-08-19T03:39:40;98217.09;;;26.01;48.07
51239;BME280;38154;47.548;18.828;2022-08-19T03:42:06;98226.41;;;26.08;47.92
51239;BME280;38154;47.548;18.828;2022-08-19T03:44:32;98210.91;;;26.13;47.84
51239;BME280;38154;47.548;18.828;2022-08-19T03:46:59;98219.13;;;26.10;47.84
51239;BME280;38154;47.548;18.828;2022-08-19T03:49:27;98216.13;;;26.02;48.26
51239;BME280;38154;47.548;18.828;2022-08-19T03:51:55;98232.81;;;25.92;48.51
51239;BME280;38154;47.548;18.828;2022-08-19T03:54:24;98226.69;;;25.90;48.51
51239;BME280;38154;47.548;18.828;2022-08-19T03:56:52;98224.38;;;25.99;48.29
51239;BME280;38154;47.548;18.828;2022-08-19T03:59:22;98222.97;;;25.93;48.35
51239;BME280;38154;47.548;18.828;2022-08-19T04:01:56;98227.31;;;25.94;48.23
51239;BME280;38154;47.548;18.828;2022-08-19T04:04:23;98234.00;;;26.01;47.99
51239;BME280;38154;47.548;18.828;2022-08-19T04:06:49;98230.44;;;26.01;48.09
51239;BME280;38154;47.548;18.828;2022-08-19T04:09:17;98236.09;;;26.09;47.98
51239;BME280;38154;47.548;18.828;2022-08-19T04:11:53;98238.88;;;26.07;48.00
51239;BME280;38154;47.548;18.828;2022-08-19T04:14:22;98233.66;;;26.06;48.18
51239;BME280;38154;47.548;18.828;2022-08-19T04:16:50;98234.06;;;26.13;48.08
51239;BME280;38154;47.548;18.828;2022-08-19T04:19:17;98245.53;;;26.15;48.12
51239;BME280;38154;47.548;18.828;2022-08-19T04:21:49;98235.78;;;26.14;48.10
51239;BME280;38154;47.548;18.828;2022-08-19T04:24:16;98235.47;;;26.18;48.11
51239;BME280;38154;47.548;18.828;2022-08-19T04:26:42;98232.59;;;26.21;48.09
51239;BME280;38154;47.548;18.828;2022-08-19T04:29:12;98239.28;;;26.27;47.89
51239;BME280;38154;47.548;18.828;2022-08-19T04:31:40;98239.38;;;26.38;47.65
51239;BME280;38154;47.548;18.828;2022-08-19T04:34:07;98235.41;;;26.44;47.50
51239;BME280;38154;47.548;18.828;2022-08-19T04:36:37;98232.91;;;26.54;46.97
51239;BME280;38154;47.548;18.828;2022-08-19T04:39:06;98237.38;;;26.66;46.72
51239;BME280;38154;47.548;18.828;2022-08-19T04:41:33;98233.31;;;26.60;46.81
51239;BME280;38154;47.548;18.828;2022-08-19T04:44:18;98238.88;;;26.57;47.00
51239;BME280;38154;47.548;18.828;2022-08-19T04:46:49;98238.38;;;26.52;47.20
51239;BME280;38154;47.548;18.828;2022-08-19T04:49:17;98234.63;;;26.55;47.08
51239;BME280;38154;47.548;18.828;2022-08-19T04:51:44;98239.31;;;26.51;47.13
51239;BME280;38154;47.548;18.828;2022-08-19T04:54:12;98243.59;;;26.54;47.00
51239;BME280;38154;47.548;18.828;2022-08-19T04:56:39;98246.59;;;26.62;46.87
51239;BME280;38154;47.548;18.828;2022-08-19T04:59:05;98241.03;;;26.65;46.90
51239;BME280;38154;47.548;18.828;2022-08-19T05:01:32;98250.66;;;26.68;46.87
51239;BME280;38154;47.548;18.828;2022-08-19T05:04:00;98253.22;;;26.69;46.62
51239;BME280;38154;47.548;18.828;2022-08-19T05:06:27;98247.59;;;26.85;46.19
51239;BME280;38154;47.548;18.828;2022-08-19T05:08:54;98241.78;;;26.91;46.21
51239;BME280;38154;47.548;18.828;2022-08-19T05:11:32;98242.16;;;26.98;45.88
51239;BME280;38154;47.548;18.828;2022-08-19T05:13:58;98246.97;;;27.06;45.63
51239;BME280;38154;47.548;18.828;2022-08-19T05:16:25;98241.37;;;27.09;45.60
51239;BME280;38154;47.548;18.828;2022-08-19T05:18:52;98243.84;;;27.23;45.15
51239;BME280;38154;47.548;18.828;2022-08-19T05:21:37;98244.16;;;27.31;44.85
51239;BME280;38154;47.548;18.828;2022-08-19T05:24:22;98246.03;;;27.42;44.69
51239;BME280;38154;47.548;18.828;2022-08-19T05:26:50;98253.69;;;27.47;44.61
51239;BME280;38154;47.548;18.828;2022-08-19T05:29:18;98257.28;;;27.70;44.14
51239;BME280;38154;47.548;18.828;2022-08-19T05:31:45;98259.84;;;27.71;44.22
51239;BME280;38154;47.548;18.828;2022-08-19T05:34:12;98267.28;;;27.68;44.21
51239;BME280;38154;47.548;18.828;2022-08-19T05:36:39;98268.50;;;27.64;44.32
51239;BME280;38154;47.548;18.828;2022-08-19T05:39:08;98270.44;;;27.73;44.14
51239;BME280;38154;47.548;18.828;2022-08-19T05:41:34;98255.72;;;27.90;44.11
51239;BME280;38154;47.548;18.828;2022-08-19T05:44:02;98267.09;;;27.93;44.12
51239;BME280;38154;47.548;18.828;2022-08-19T05:46:31;98261.25;;;28.00;43.48
51239;BME280;38154;47.548;18.828;2022-08-19T05:48:57;98265.75;;;28.22;43.02
51239;BME280;38154;47.548;18.828;2022-08-19T05:51:24;98262.31;;;28.54;42.34
51239;BME280;38154;47.548;18.828;2022-08-19T05:53:52;98253.22;;;28.56;42.13
51239;BME280;38154;47.548;18.828;2022-08-19T05:56:18;98246.22;;;28.76;41.52
51239;BME280;38154;47.548;18.828;2022-08-19T05:58:44;98245.44;;;28.97;41.06
51239;BME280;38154;47.548;18.828;2022-08-19T06:01:13;98248.31;;;29.05;40.63
51239;BME280;38154;47.548;18.828;2022-08-19T06:03:39;98246.47;;;29.17;40.63
51239;BME280;38154;47.548;18.828;2022-08-19T06:06:10;98262.47;;;29.39;39.95
51239;BME280;38154;47.548;18.828;2022-08-19T06:08:37;98239.34;;;29.69;39.29
51239;BME280;38154;47.548;18.828;2022-08-19T06:11:19;98236.09;;;29.87;38.68
51239;BME280;38154;47.548;18.828;2022-08-19T06:13:46;98237.78;;;29.88;38.16
51239;BME280;38154;47.548;18.828;2022-08-19T06:16:15;98251.41;;;29.96;37.28
51239;BME280;38154;47.548;18.828;2022-08-19T06:18:46;98237.88;;;30.38;36.32
51239;BME280;38154;47.548;18.828;2022-08-19T06:21:12;98249.94;;;31.23;34.47
51239;BME280;38154;47.548;18.828;2022-08-19T06:23:38;98241.37;;;31.77;33.82
51239;BME280;38154;47.548;18.828;2022-08-19T06:26:04;98244.00;;;32.44;32.41
51239;BME280;38154;47.548;18.828;2022-08-19T06:28:30;98231.91;;;33.12;31.65
51239;BME280;38154;47.548;18.828;2022-08-19T06:30:56;98243.72;;;33.46;30.37
51239;BME280;38154;47.548;18.828;2022-08-19T06:33:22;98234.22;;;33.60;29.83
51239;BME280;38154;47.548;18.828;2022-08-19T06:35:48;98221.22;;;33.82;29.46
51239;BME280;38154;47.548;18.828;2022-08-19T06:38:13;98226.66;;;33.90;28.83
51239;BME280;38154;47.548;18.828;2022-08-19T06:40:39;98231.19;;;34.16;28.19
51239;BME280;38154;47.548;18.828;2022-08-19T06:43:05;98232.63;;;34.28;27.59
51239;BME280;38154;47.548;18.828;2022-08-19T06:45:31;98230.25;;;34.68;26.96
51239;BME280;38154;47.548;18.828;2022-08-19T06:47:57;98248.75;;;34.38;26.81
51239;BME280;38154;47.548;18.828;2022-08-19T06:50:23;98253.97;;;34.31;27.20
51239;BME280;38154;47.548;18.828;2022-08-19T06:52:49;98243.69;;;34.17;27.24
51239;BME280;38154;47.548;18.828;2022-08-19T06:55:15;98269.72;;;34.36;27.61
51239;BME280;38154;47.548;18.828;2022-08-19T06:57:41;98272.59;;;34.34;27.83
51239;BME280;38154;47.548;18.828;2022-08-19T07:00:09;98264.22;;;35.05;27.16
51239;BME280;38154;47.548;18.828;2022-08-19T07:02:43;98273.97;;;34.81;27.71
51239;BME280;38154;47.548;18.828;2022-08-19T07:05:09;98279.97;;;35.18;26.39
51239;BME280;38154;47.548;18.828;2022-08-19T07:07:35;98273.25;;;35.46;25.84
51239;BME280;38154;47.548;18.828;2022-08-19T07:10:01;98285.78;;;35.39;25.82
51239;BME280;38154;47.548;18.828;2022-08-19T07:12:29;98283.75;;;35.58;26.03
51239;BME280;38154;47.548;18.828;2022-08-19T07:14:58;98281.72;;;35.68;25.65
51239;BME280;38154;47.548;18.828;2022-08-19T07:17:24;98284.44;;;35.84;25.61
51239;BME280;38154;47.548;18.828;2022-08-19T07:19:50;98290.53;;;36.59;25.33
51239;BME280;38154;47.548;18.828;2022-08-19T07:22:16;98288.16;;;37.73;23.50
51239;BME280;38154;47.548;18.828;2022-08-19T07:24:43;98296.91;;;37.83;23.09
51239;BME280;38154;47.548;18.828;2022-08-19T07:27:09;98293.25;;;37.53;23.01
51239;BME280;38154;47.548;18.828;2022-08-19T07:29:35;98293.44;;;37.75;23.45
51239;BME280;38154;47.548;18.828;2022-08-19T07:32:03;98304.56;;;38.03;22.80
51239;BME280;38154;47.548;18.828;2022-08-19T07:34:30;98323.66;;;38.48;22.44
51239;BME280;38154;47.548;18.828;2022-08-19T07:36:56;98299.81;;;37.82;23.00
51239;BME280;38154;47.548;18.828;2022-08-19T07:39:28;98306.78;;;37.84;23.01
51239;BME280;38154;47.548;18.828;2022-08-19T07:41:55;98304.41;;;38.49;22.33
51239;BME280;38154;47.548;18.828;2022-08-19T07:44:22;98300.09;;;38.40;22.45
51239;BME280;38154;47.548;18.828;2022-08-19T07:46:51;98292.75;;;38.85;21.70
51239;BME280;38154;47.548;18.828;2022-08-19T07:49:18;98292.38;;;39.68;20.95
51239;BME280;38154;47.548;18.828;2022-08-19T07:51:46;98285.34;;;38.64;21.64
51239;BME280;38154;47.548;18.828;2022-08-19T07:54:13;98305.47;;;40.01;20.55
51239;BME280;38154;47.548;18.828;2022-08-19T07:56:39;98309.63;;;39.75;20.77
51239;BME280;38154;47.548;18.828;2022-08-19T07:59:05;98312.72;;;39.65;20.69
51239;BME280;38154;47.548;18.828;2022-08-19T08:01:31;98313.50;;;39.59;21.13
51239;BME280;38154;47.548;18.828;2022-08-19T08:03:57;98311.97;;;39.13;21.67
51239;BME280;38154;47.548;18.828;2022-08-19T08:06:42;98315.75;;;38.83;21.87
51239;BME280;38154;47.548;18.828;2022-08-19T08:09:33;98308.37;;;38.32;22.62
51239;BME280;38154;47.548;18.828;2022-08-19T08:14:38;98312.03;;;38.69;22.23
51239;BME280;38154;47.548;18.828;2022-08-19T08:17:05;98325.53;;;38.92;21.97
51239;BME280;38154;47.548;18.828;2022-08-19T08:19:32;98325.69;;;39.20;21.79
51239;BME280;38154;47.548;18.828;2022-08-19T08:22:00;98323.59;;;39.59;20.70
51239;BME280;38154;47.548;18.828;2022-08-19T08:24:30;98322.72;;;39.58;21.01
51239;BME280;38154;47.548;18.828;2022-08-19T08:27:00;98316.81;;;40.33;20.31
51239;BME280;38154;47.548;18.828;2022-08-19T08:29:28;98310.75;;;40.02;20.73
51239;BME280;38154;47.548;18.828;2022-08-19T08:31:54;98318.19;;;40.50;20.22
51239;BME280;38154;47.548;18.828;2022-08-19T08:34:20;98291.31;;;39.91;20.58
51239;BME280;38154;47.548;18.828;2022-08-19T08:36:46;98295.59;;;38.77;21.76
51239;BME280;38154;47.548;18.828;2022-08-19T08:39:17;98288.94;;;38.50;22.04
51239;BME280;38154;47.548;18.828;2022-08-19T08:41:50;98283.91;;;38.09;22.40
51239;BME280;38154;47.548;18.828;2022-08-19T08:44:27;98277.34;;;38.33;22.51
51239;BME280;38154;47.548;18.828;2022-08-19T08:47:01;98283.06;;;38.53;22.61
51239;BME280;38154;47.548;18.828;2022-08-19T08:49:39;98293.03;;;38.46;22.08
51239;BME280;38154;47.548;18.828;2022-08-19T08:52:10;98303.59;;;39.37;20.35
51239;BME280;38154;47.548;18.828;2022-08-19T08:54:48;98291.53;;;39.67;20.44
51239;BME280;38154;47.548;18.828;2022-08-19T09:00:37;98288.97;;;39.87;20.03
51239;BME280;38154;47.548;18.828;2022-08-19T09:03:06;98289.88;;;40.23;19.91
51239;BME280;38154;47.548;18.828;2022-08-19T09:05:43;98281.16;;;40.06;19.73
51239;BME280;38154;47.548;18.828;2022-08-19T09:08:22;98292.50;;;40.79;19.15
51239;BME280;38154;47.548;18.828;2022-08-19T09:10:53;98289.56;;;40.39;19.31
51239;BME280;38154;47.548;18.828;2022-08-19T09:13:30;98293.87;;;40.62;18.78
51239;BME280;38154;47.548;18.828;2022-08-19T09:16:05;98288.56;;;40.95;18.71
51239;BME280;38154;47.548;18.828;2022-08-19T09:18:42;98279.84;;;42.07;18.30
51239;BME280;38154;47.548;18.828;2022-08-19T09:21:08;98288.63;;;42.56;17.11
51239;BME280;38154;47.548;18.828;2022-08-19T09:23:36;98265.59;;;41.71;18.06
51239;BME280;38154;47.548;18.828;2022-08-19T09:26:23;98265.56;;;41.45;18.65
51239;BME280;38154;47.548;18.828;2022-08-19T09:28:52;98256.47;;;41.58;18.32
51239;BME280;38154;47.548;18.828;2022-08-19T09:31:21;98262.56;;;41.46;18.51
51239;BME280;38154;47.548;18.828;2022-08-19T09:33:48;98257.31;;;40.63;18.97
51239;BME280;38154;47.548;18.828;2022-08-19T09:36:16;98259.78;;;40.16;19.45
51239;BME280;38154;47.548;18.828;2022-08-19T09:38:42;98259.75;;;40.45;19.26
51239;BME280;38154;47.548;18.828;2022-08-19T09:41:11;98266.06;;;40.17;19.71
51239;BME280;38154;47.548;18.828;2022-08-19T09:43:40;98263.22;;;40.32;19.90
51239;BME280;38154;47.548;18.828;2022-08-19T09:46:08;98268.31;;;40.06;20.31
51239;BME280;38154;47.548;18.828;2022-08-19T09:48:36;98249.44;;;39.12;20.68
51239;BME280;38154;47.548;18.828;2022-08-19T09:51:11;98255.66;;;38.39;21.52
51239;BME280;38154;47.548;18.828;2022-08-19T09:53:38;98240.13;;;39.06;21.00
51239;BME280;38154;47.548;18.828;2022-08-19T09:56:05;98255.66;;;39.06;21.17
51239;BME280;38154;47.548;18.828;2022-08-19T09:58:33;98250.59;;;39.24;20.60
51239;BME280;38154;47.548;18.828;2022-08-19T10:01:00;98247.50;;;39.27;21.07
51239;BME280;38154;47.548;18.828;2022-08-19T10:03:27;98247.94;;;39.53;20.87
51239;BME280;38154;47.548;18.828;2022-08-19T10:05:54;98244.22;;;39.88;20.41
51239;BME280;38154;47.548;18.828;2022-08-19T10:08:25;98244.34;;;40.02;20.41
51239;BME280;38154;47.548;18.828;2022-08-19T10:10:52;98247.72;;;40.39;20.04
51239;BME280;38154;47.548;18.828;2022-08-19T10:13:21;98245.22;;;39.53;20.70
51239;BME280;38154;47.548;18.828;2022-08-19T10:15:49;98235.91;;;39.97;20.32
51239;BME280;38154;47.548;18.828;2022-08-19T10:18:17;98251.88;;;40.35;20.38
51239;BME280;38154;47.548;18.828;2022-08-19T10:20:44;98245.47;;;40.14;20.52
51239;BME280;38154;47.548;18.828;2022-08-19T10:23:12;98241.34;;;40.32;20.56
51239;BME280;38154;47.548;18.828;2022-08-19T10:25:39;98241.53;;;41.27;19.71
51239;BME280;38154;47.548;18.828;2022-08-19T10:28:05;98241.03;;;40.96;19.21
51239;BME280;38154;47.548;18.828;2022-08-19T10:30:31;98240.63;;;41.00;19.45
51239;BME280;38154;47.548;18.828;2022-08-19T10:32:57;98240.87;;;41.25;19.18
51239;BME280;38154;47.548;18.828;2022-08-19T10:35:23;98245.09;;;41.41;18.89
51239;BME280;38154;47.548;18.828;2022-08-19T10:37:52;98245.25;;;41.06;19.59
51239;BME280;38154;47.548;18.828;2022-08-19T10:40:17;98238.53;;;41.15;19.05
51239;BME280;38154;47.548;18.828;2022-08-19T10:42:43;98246.16;;;41.40;19.20
51239;BME280;38154;47.548;18.828;2022-08-19T10:45:10;98233.94;;;41.29;19.35
51239;BME280;38154;47.548;18.828;2022-08-19T10:47:36;98243.16;;;42.08;18.59
51239;BME280;38154;47.548;18.828;2022-08-19T10:50:03;98249.13;;;41.45;18.94
51239;BME280;38154;47.548;18.828;2022-08-19T10:52:49;98242.59;;;41.39;19.01
51239;BME280;38154;47.548;18.828;2022-08-19T10:55:15;98241.34;;;41.75;18.69
51239;BME280;38154;47.548;18.828;2022-08-19T10:58:00;98252.06;;;41.63;18.71
51239;BME280;38154;47.548;18.828;2022-08-19T11:00:26;98249.75;;;41.40;19.28
51239;BME280;38154;47.548;18.828;2022-08-19T11:02:52;98245.53;;;41.44;19.27
51239;BME280;38154;47.548;18.828;2022-08-19T11:05:19;98239.69;;;40.79;19.73
51239;BME280;38154;47.548;18.828;2022-08-19T11:07:45;98235.13;;;40.86;19.63
51239;BME280;38154;47.548;18.828;2022-08-19T11:10:13;98234.66;;;40.83;19.78
51239;BME280;38154;47.548;18.828;2022-08-19T11:12:40;98243.00;;;41.36;19.29
51239;BME280;38154;47.548;18.828;2022-08-19T11:15:10;98244.50;;;41.52;19.03
51239;BME280;38154;47.548;18.828;2022-08-19T11:17:38;98241.13;;;41.43;19.17
51239;BME280;38154;47.548;18.828;2022-08-19T11:20:06;98259.44;;;41.76;18.74
51239;BME280;38154;47.548;18.828;2022-08-19T11:22:32;98262.81;;;41.31;19.59
51239;BME280;38154;47.548;18.828;2022-08-19T11:24:58;98242.88;;;40.89;19.56
51239;BME280;38154;47.548;18.828;2022-08-19T11:27:24;98260.03;;;41.25;19.44
51239;BME280;38154;47.548;18.828;2022-08-19T11:29:50;98250.00;;;41.72;18.83
51239;BME280;38154;47.548;18.828;2022-08-19T11:32:16;98241.97;;;41.64;18.73
51239;BME280;38154;47.548;18.828;2022-08-19T11:34:42;98239.84;;;41.46;18.82
51239;BME280;38154;47.548;18.828;2022-08-19T11:37:07;98248.59;;;40.94;19.26
51239;BME280;38154;47.548;18.828;2022-08-19T11:39:34;98253.31;;;41.34;18.98
51239;BME280;38154;47.548;18.828;2022-08-19T11:42:05;98247.97;;;41.06;19.33
51239;BME280;38154;47.548;18.828;2022-08-19T11:44:49;98238.59;;;41.42;19.00
51239;BME280;38154;47.548;18.828;2022-08-19T11:47:15;98234.91;;;41.01;19.47
51239;BME280;38154;47.548;18.828;2022-08-19T11:49:41;98241.84;;;40.07;20.20
51239;BME280;38154;47.548;18.828;2022-08-19T11:52:08;98231.59;;;40.09;20.05
51239;BME280;38154;47.548;18.828;2022-08-19T11:54:34;98219.84;;;39.30;21.05
51239;BME280;38154;47.548;18.828;2022-08-19T11:57:02;98227.03;;;38.14;22.26
51239;BME280;38154;47.548;18.828;2022-08-19T11:59:28;98214.72;;;37.88;22.33
51239;BME280;38154;47.548;18.828;2022-08-19T12:01:55;98215.56;;;38.03;22.41
51239;BME280;38154;47.548;18.828;2022-08-19T12:04:22;98211.34;;;37.86;23.01
51239;BME280;38154;47.548;18.828;2022-08-19T12:06:48;98222.16;;;37.56;23.15
51239;BME280;38154;47.548;18.828;2022-08-19T12:09:15;98213.53;;;37.06;23.13
51239;BME280;38154;47.548;18.828;2022-08-19T12:11:41;98228.94;;;37.37;22.89
51239;BME280;38154;47.548;18.828;2022-08-19T12:14:10;98237.88;;;37.99;22.41
51239;BME280;38154;47.548;18.828;2022-08-19T12:16:37;98236.50;;;38.33;21.94
51239;BME280;38154;47.548;18.828;2022-08-19T12:19:04;98235.63;;;37.73;22.76
51239;BME280;38154;47.548;18.828;2022-08-19T12:21:31;98239.03;;;37.28;23.32
51239;BME280;38154;47.548;18.828;2022-08-19T12:23:59;98228.62;;;37.32;23.52
51239;BME280;38154;47.548;18.828;2022-08-19T12:26:27;98239.69;;;37.54;23.03
51239;BME280;38154;47.548;18.828;2022-08-19T12:28:54;98230.31;;;37.56;23.14
51239;BME280;38154;47.548;18.828;2022-08-19T12:31:20;98232.31;;;37.16;23.80
51239;BME280;38154;47.548;18.828;2022-08-19T12:33:46;98236.16;;;36.99;24.16
51239;BME280;38154;47.548;18.828;2022-08-19T12:36:14;98220.25;;;36.95;24.49
51239;BME280;38154;47.548;18.828;2022-08-19T12:38:41;98205.19;;;37.08;24.42
51239;BME280;38154;47.548;18.828;2022-08-19T12:41:11;98205.94;;;37.25;23.74
51239;BME280;38154;47.548;18.828;2022-08-19T12:43:37;98211.78;;;37.37;23.30
51239;BME280;38154;47.548;18.828;2022-08-19T12:46:04;98203.66;;;37.52;23.32
51239;BME280;38154;47.548;18.828;2022-08-19T12:48:31;98202.47;;;37.54;23.23
51239;BME280;38154;47.548;18.828;2022-08-19T12:50:57;98204.50;;;37.52;22.99
51239;BME280;38154;47.548;18.828;2022-08-19T12:53:23;98197.63;;;37.18;23.38
51239;BME280;38154;47.548;18.828;2022-08-19T12:55:57;98196.97;;;36.93;23.84
51239;BME280;38154;47.548;18.828;2022-08-19T12:58:23;98192.72;;;37.13;24.15
51239;BME280;38154;47.548;18.828;2022-08-19T13:00:49;98195.66;;;37.35;23.44